首页
METAR-TAF:

METAR-TAF

机场 :

Hurlburt Field

Mary Esther, 佛罗里达州, 美国

纬度: 30-25N, 经度: 086-41W, 海拔: 12米

当前天气观测

该预报发布于38分钟前的16:55 UTC
风速14节,风向南转西南,有时为18节阵风
温度 32°C
湿度 71%
气压 1014 hPa
能見度: 16.1公里
散云层高于2700英尺

METAR: KHRT 241655Z 20014G18KT 10SM SCT027 32/26 A2995 RMK AO2A SLP140 T03210259 $

时间: 12:33 (17:33 UTC)

预报

该预报发布于7小时和33分钟前的10:00 UTC
预报有效从24日的 10点(UTC)到 25日的 16点(UTC)
风速9节,风向西
能见度10公里或以上
散云层高于3000英尺
成为
从 24日的 18点(UTC)到 24日的 19点(UTC)
风速10节,风向西转西南,有时为18节阵风
能見度: 8000
多云层高于3000英尺, 积雨云.
阵雨, 附近有雷暴
短暂存在
从 24日的 19点(UTC)到 24日的 22点(UTC)
风速12节,风向西转西南,有时为20节阵风
能見度: 6000
雷暴, 雨
成为
从 24日的 22点(UTC)到 24日的 23点(UTC)
风速9节,风向西转西北
能見度: 2509
散云层高于3000英尺

TAF: KHRT 241000Z 2410/2516 27009KT 9999 SCT030 QNH2992INS BECMG 2418/2419 25010G18KT 8000 SHRA VCTS BKN030CB QNH2987INS TEMPO 2419/2422 25012G20KT 6000 TSRA BECMG 2422/2423 23009KT 9999 NSW SCT030 QNH2986INS WND 29009KT AFT 2509 TX34/2419Z TN26/2411Z

超过4000个机场的气象观测和天气预报(METAR&TAF报告)。

可查询的气象台以黄色和红色小点在地图上表示。

将鼠标移到小点上方,可查看气象台名称。

然后点击查看天气观测和预报。

如需切换地图:点击带黑十字的绿色按钮放大地图;点击带横线的绿色按钮缩小地图;或者点击绿色箭头查看邻近地区的地图。


METAR-TAF: